createdAt,value
2023-04-04T00:01:35.224Z,99616.56
2023-04-04T00:04:03.015Z,99619.03
2023-04-04T00:06:30.552Z,99623.34
2023-04-04T00:08:57.816Z,99620.75
2023-04-04T00:11:27.016Z,99624.16
2023-04-04T00:13:54.944Z,99625.81
2023-04-04T00:16:22.764Z,99625.00
2023-04-04T00:18:50.584Z,99618.19
2023-04-04T00:21:18.194Z,99623.25
2023-04-04T00:23:45.317Z,99639.75
2023-04-04T00:26:12.621Z,99641.53
2023-04-04T00:28:40.707Z,99649.34
2023-04-04T00:31:07.918Z,99638.84
2023-04-04T00:33:35.264Z,99637.09
2023-04-04T00:36:03.114Z,99637.00
2023-04-04T00:38:32.810Z,99643.13
2023-04-04T00:41:00.967Z,99649.16
2023-04-04T00:43:29.930Z,99634.38
2023-04-04T00:45:57.256Z,99648.28
2023-04-04T00:48:25.252Z,99644.78
2023-04-04T00:50:52.945Z,99646.66
2023-04-04T00:53:21.637Z,99649.16
2023-04-04T00:55:49.597Z,99644.75
2023-04-04T00:58:17.037Z,99638.69
2023-04-04T01:00:44.412Z,99645.69
2023-04-04T01:03:13.227Z,99637.03
2023-04-04T01:05:42.082Z,99650.03
2023-04-04T01:08:09.476Z,99645.69
2023-04-04T01:10:37.995Z,99634.34
2023-04-04T01:13:07.087Z,99635.25
2023-04-04T01:15:34.392Z,99639.56
2023-04-04T01:18:04.305Z,99645.69
2023-04-04T01:20:37.495Z,99649.25
2023-04-04T01:23:07.044Z,99647.53
2023-04-04T01:25:35.505Z,99653.59
2023-04-04T01:28:06.878Z,99659.75
2023-04-04T01:30:36.706Z,99656.25
2023-04-04T01:33:28.613Z,99659.66
2023-04-04T01:35:58.979Z,99667.56
2023-04-04T01:39:11.097Z,99674.53
2023-04-04T01:41:39.970Z,99669.31
2023-04-04T01:44:09.314Z,99678.94
2023-04-04T01:46:37.382Z,99674.53
2023-04-04T01:49:05.381Z,99670.19
2023-04-04T01:51:34.722Z,99664.94
2023-04-04T01:54:02.176Z,99662.34
2023-04-04T01:56:29.571Z,99667.53
2023-04-04T01:58:57.076Z,99655.31
2023-04-04T02:01:25.189Z,99659.75
2023-04-04T02:03:53.182Z,99659.75
2023-04-04T02:06:22.959Z,99653.78
2023-04-04T02:08:50.740Z,99640.66
2023-04-04T02:11:17.867Z,99636.19
2023-04-04T02:13:45.130Z,99631.09
2023-04-04T02:16:15.968Z,99631.03
2023-04-04T02:18:43.087Z,99630.25
2023-04-04T02:21:10.645Z,99638.13
2023-04-04T02:23:39.085Z,99632.94
2023-04-04T02:26:06.237Z,99638.13
2023-04-04T02:28:33.589Z,99621.63
2023-04-04T02:31:04.900Z,99626.81
2023-04-04T02:33:33.522Z,99619.16
2023-04-04T02:36:04.341Z,99619.97
2023-04-04T02:38:31.804Z,99622.56
2023-04-04T02:41:00.769Z,99629.53
2023-04-04T02:43:28.151Z,99627.78
2023-04-04T02:45:56.306Z,99634.78
2023-04-04T02:48:26.102Z,99640.88
2023-04-04T02:50:57.327Z,99646.09
2023-04-04T02:53:24.374Z,99645.22
2023-04-04T02:55:54.893Z,99646.09
2023-04-04T02:58:22.719Z,99635.72
2023-04-04T03:00:57.027Z,99640.88
2023-04-04T03:03:28.786Z,99641.78
2023-04-04T03:05:57.084Z,99638.28
2023-04-04T03:08:24.634Z,99640.09
2023-04-04T03:10:51.876Z,99641.78
2023-04-04T03:13:19.061Z,99657.50
2023-04-04T03:15:47.341Z,99659.22
2023-04-04T03:18:15.797Z,99659.22
2023-04-04T03:20:43.137Z,99657.47
2023-04-04T03:23:10.684Z,99660.09
2023-04-04T03:25:42.076Z,99664.47
2023-04-04T03:28:14.267Z,99664.47
2023-04-04T03:30:42.385Z,99671.38
2023-04-04T03:33:10.381Z,99665.31
2023-04-04T03:35:40.753Z,99660.94
2023-04-04T03:38:09.746Z,99669.81
2023-04-04T03:40:37.704Z,99667.94
2023-04-04T03:43:13.462Z,99664.47
2023-04-04T03:45:42.299Z,99662.63
2023-04-04T03:48:14.004Z,99659.13
2023-04-04T03:50:42.369Z,99663.63
2023-04-04T03:53:13.819Z,99666.19
2023-04-04T03:55:43.587Z,99668.03
2023-04-04T03:58:15.778Z,99662.84
2023-04-04T04:00:51.905Z,99664.53
2023-04-04T04:03:24.212Z,99667.97
2023-04-04T04:05:55.497Z,99670.56
2023-04-04T04:08:26.800Z,99679.19
2023-04-04T04:11:05.669Z,99684.38
2023-04-04T04:13:40.690Z,99679.16
2023-04-04T04:16:10.689Z,99682.59
2023-04-04T04:18:38.679Z,99679.88
2023-04-04T04:21:12.253Z,99684.34
2023-04-04T04:23:44.965Z,99686.00
2023-04-04T04:26:13.104Z,99692.91
2023-04-04T04:28:42.229Z,99692.13
2023-04-04T04:31:15.554Z,99687.81
2023-04-04T04:33:47.240Z,99697.31
2023-04-04T04:36:16.865Z,99689.47
2023-04-04T04:38:54.972Z,99688.59
2023-04-04T04:41:24.185Z,99688.63
2023-04-04T04:43:53.405Z,99689.53
2023-04-04T04:46:25.020Z,99698.16
2023-04-04T04:48:53.871Z,99692.88
2023-04-04T04:51:27.156Z,99688.56
2023-04-04T04:53:56.542Z,99687.66
2023-04-04T04:56:25.619Z,99687.59
2023-04-04T04:58:56.754Z,99690.25
2023-04-04T05:01:28.071Z,99697.13
2023-04-04T05:03:57.731Z,99695.47
2023-04-04T05:06:34.901Z,99697.16
2023-04-04T05:09:03.042Z,99697.13
2023-04-04T05:11:35.033Z,99695.41
2023-04-04T05:14:05.158Z,99704.13
2023-04-04T05:16:37.751Z,99715.41
2023-04-04T05:19:07.397Z,99724.09
2023-04-04T05:21:41.683Z,99726.69
2023-04-04T05:24:14.155Z,99733.69
2023-04-04T05:26:43.364Z,99726.75
2023-04-04T05:29:11.863Z,99714.56
2023-04-04T05:31:43.771Z,99705.81
2023-04-04T05:34:17.427Z,99697.09
2023-04-04T05:36:45.663Z,99689.22
2023-04-04T05:39:13.996Z,99691.00
2023-04-04T05:41:51.861Z,99711.03
2023-04-04T05:44:23.437Z,99712.78
2023-04-04T05:46:54.817Z,99703.19
2023-04-04T05:49:22.435Z,99707.59
2023-04-04T05:51:59.187Z,99704.09
2023-04-04T05:54:27.824Z,99720.53
2023-04-04T05:56:57.468Z,99724.00
2023-04-04T05:59:47.803Z,99731.84
2023-04-04T06:02:16.725Z,99724.88
2023-04-04T06:04:51.930Z,99730.97
2023-04-04T06:07:28.935Z,99724.00
2023-04-04T06:09:57.070Z,99730.03
2023-04-04T06:12:27.410Z,99722.22
2023-04-04T06:14:55.680Z,99726.44
2023-04-04T06:17:25.832Z,99718.66
2023-04-04T06:19:55.878Z,99711.50
2023-04-04T06:22:24.104Z,99715.78
2023-04-04T06:24:55.210Z,99721.75
2023-04-04T06:27:26.005Z,99723.53
2023-04-04T06:29:54.369Z,99717.38
2023-04-04T06:32:23.601Z,99715.75
2023-04-04T06:34:51.599Z,99708.78
2023-04-04T06:37:29.053Z,99705.28
2023-04-04T06:40:09.378Z,99706.91
2023-04-04T06:42:37.679Z,99707.88
2023-04-04T06:45:06.800Z,99706.03
2023-04-04T06:47:35.795Z,99708.69
2023-04-04T06:50:03.761Z,99712.88
2023-04-04T06:52:34.336Z,99704.06
2023-04-04T06:55:04.741Z,99691.88
2023-04-04T06:57:33.437Z,99696.19
2023-04-04T07:00:02.842Z,99696.06
2023-04-04T07:02:31.771Z,99691.63
2023-04-04T07:04:59.260Z,99691.56
2023-04-04T07:07:27.263Z,99695.13
2023-04-04T07:09:55.028Z,99700.16
2023-04-04T07:12:23.545Z,99697.28
2023-04-04T07:14:50.865Z,99700.44
2023-04-04T07:17:24.853Z,99706.31
2023-04-04T07:19:54.384Z,99713.34
2023-04-04T07:22:22.410Z,99713.38
2023-04-04T07:24:50.359Z,99714.03
2023-04-04T07:27:18.122Z,99720.34
2023-04-04T07:29:46.043Z,99726.97
2023-04-04T07:32:14.016Z,99723.00
2023-04-04T07:34:42.495Z,99725.13
2023-04-04T07:37:10.936Z,99735.22
2023-04-04T07:39:39.764Z,99723.75
2023-04-04T07:42:07.592Z,99739.06
2023-04-04T07:44:35.602Z,99733.34
2023-04-04T07:47:10.089Z,99725.22
2023-04-04T07:49:40.272Z,99727.97
2023-04-04T07:52:07.722Z,99725.69
2023-04-04T07:54:35.924Z,99722.53
2023-04-04T07:57:07.283Z,99724.41
2023-04-04T07:59:35.671Z,99729.28
2023-04-04T08:02:05.730Z,99722.75
2023-04-04T08:04:37.841Z,99730.41
2023-04-04T08:07:06.870Z,99727.41
2023-04-04T08:09:37.319Z,99729.94
2023-04-04T08:12:08.907Z,99728.56
2023-04-04T08:14:36.978Z,99727.50
2023-04-04T08:17:05.379Z,99735.09
2023-04-04T08:19:33.151Z,99743.25
2023-04-04T08:22:05.436Z,99739.53
2023-04-04T08:24:35.139Z,99741.41
2023-04-04T08:27:13.200Z,99740.34
2023-04-04T08:29:49.814Z,99738.06
2023-04-04T08:32:17.860Z,99732.13
2023-04-04T08:34:45.826Z,99733.50
2023-04-04T08:37:14.348Z,99725.88
2023-04-04T08:39:43.774Z,99729.69
2023-04-04T08:42:13.567Z,99720.63
2023-04-04T08:44:46.219Z,99729.34
2023-04-04T08:47:16.940Z,99723.78
2023-04-04T08:49:47.450Z,99724.44
2023-04-04T08:52:23.241Z,99735.75
2023-04-04T08:54:53.687Z,99735.69
2023-04-04T08:57:22.852Z,99734.78
2023-04-04T08:59:52.118Z,99737.06
2023-04-04T09:02:28.601Z,99736.56
2023-04-04T09:05:06.428Z,99735.91
2023-04-04T09:07:39.473Z,99740.97
2023-04-04T09:10:12.008Z,99741.25
2023-04-04T09:12:45.605Z,99743.34
2023-04-04T09:15:13.089Z,99736.66
2023-04-04T09:17:41.549Z,99739.31
2023-04-04T09:20:35.767Z,99740.56
2023-04-04T09:23:08.457Z,99741.59
2023-04-04T09:25:38.091Z,99751.25
2023-04-04T09:28:06.161Z,99751.38
2023-04-04T09:30:36.300Z,99748.91
2023-04-04T09:33:07.537Z,99734.25
2023-04-04T09:35:38.044Z,99742.81
2023-04-04T09:38:09.572Z,99737.59
2023-04-04T09:40:38.995Z,99744.34
2023-04-04T09:43:08.609Z,99739.13
2023-04-04T09:45:40.703Z,99740.34
2023-04-04T09:48:12.440Z,99720.22
2023-04-04T09:50:48.736Z,99724.25
2023-04-04T09:53:20.316Z,99723.13
2023-04-04T09:55:56.911Z,99726.75
2023-04-04T09:58:26.322Z,99717.78
2023-04-04T10:01:05.678Z,99703.78
2023-04-04T10:03:35.407Z,99707.47
2023-04-04T10:06:07.458Z,99707.88
2023-04-04T10:08:43.604Z,99711.78
2023-04-04T10:11:32.653Z,99704.69
2023-04-04T10:14:03.015Z,99706.56
2023-04-04T10:16:37.933Z,99710.88
2023-04-04T10:19:08.294Z,99704.75
2023-04-04T10:21:36.862Z,99716.97
2023-04-04T10:24:10.693Z,99719.66
2023-04-04T10:26:39.952Z,99723.47
2023-04-04T10:29:08.879Z,99723.72
2023-04-04T10:31:45.611Z,99733.66
2023-04-04T10:34:33.124Z,99731.47
2023-04-04T10:37:21.772Z,99725.84
2023-04-04T10:40:06.128Z,99726.41
2023-04-04T10:42:45.833Z,99723.78
2023-04-04T10:45:21.525Z,99725.31
2023-04-04T10:47:51.493Z,99730.16
2023-04-04T10:50:23.920Z,99729.34
2023-04-04T10:52:55.582Z,99736.44
2023-04-04T10:55:24.185Z,99734.94
2023-04-04T10:57:56.215Z,99734.78
2023-04-04T11:00:24.728Z,99737.72
2023-04-04T11:02:58.434Z,99739.03
2023-04-04T11:05:42.814Z,99737.88
2023-04-04T11:08:16.083Z,99745.22
2023-04-04T11:10:53.232Z,99729.56
2023-04-04T11:13:37.485Z,99725.34
2023-04-04T11:16:10.497Z,99735.03
2023-04-04T11:18:43.377Z,99724.22
2023-04-04T11:21:31.102Z,99725.59
2023-04-04T11:23:59.450Z,99738.25
2023-04-04T11:26:28.140Z,99727.56
2023-04-04T11:29:03.257Z,99746.63
2023-04-04T11:31:35.477Z,99738.72
2023-04-04T11:34:10.181Z,99740.41
2023-04-04T11:36:45.831Z,99734.25
2023-04-04T11:39:30.133Z,99729.13
2023-04-04T11:42:19.262Z,99739.81
2023-04-04T11:44:54.185Z,99734.81
2023-04-04T11:47:27.240Z,99726.31
2023-04-04T11:50:01.874Z,99724.38
2023-04-04T11:52:36.816Z,99731.72
2023-04-04T11:55:19.471Z,99721.16
2023-04-04T11:57:48.826Z,99723.59
2023-04-04T12:00:38.088Z,99721.28
2023-04-04T12:03:12.896Z,99715.31
2023-04-04T12:05:45.442Z,99716.63
2023-04-04T12:08:14.803Z,99711.84
2023-04-04T12:10:42.262Z,99717.56
2023-04-04T12:13:10.927Z,99707.19
2023-04-04T12:15:39.747Z,99711.59
2023-04-04T12:18:08.942Z,99704.47
2023-04-04T12:20:42.462Z,99708.44
2023-04-04T12:23:10.850Z,99706.22
2023-04-04T12:25:40.677Z,99700.13
2023-04-04T12:28:09.922Z,99699.78
2023-04-04T12:30:41.498Z,99709.75
2023-04-04T12:33:10.189Z,99708.69
2023-04-04T12:35:39.043Z,99712.13
2023-04-04T12:38:11.521Z,99712.06
2023-04-04T12:40:42.823Z,99709.16
2023-04-04T12:43:16.862Z,99707.97
2023-04-04T12:45:45.267Z,99717.25
2023-04-04T12:48:19.057Z,99712.31
2023-04-04T12:50:58.457Z,99710.72
2023-04-04T12:53:31.515Z,99704.53
2023-04-04T12:56:06.339Z,99708.06
2023-04-04T12:58:37.088Z,99704.31
2023-04-04T13:01:05.934Z,99700.81
2023-04-04T13:03:35.634Z,99688.53
2023-04-04T13:06:12.081Z,99689.06
2023-04-04T13:08:50.801Z,99687.06
2023-04-04T13:11:19.442Z,99686.34
2023-04-04T13:16:36.336Z,99683.81
2023-04-04T13:19:04.864Z,99681.97
2023-04-04T13:21:34.009Z,99684.59
2023-04-04T13:24:04.658Z,99681.34
2023-04-04T13:26:33.249Z,99678.97
2023-04-04T13:29:01.374Z,99679.75
2023-04-04T13:31:30.609Z,99674.56
2023-04-04T13:33:58.600Z,99677.59
2023-04-04T13:36:28.832Z,99663.50
2023-04-04T13:38:56.980Z,99670.81
2023-04-04T13:41:25.261Z,99676.56
2023-04-04T13:43:53.466Z,99675.13
2023-04-04T13:46:20.964Z,99676.16
2023-04-04T13:48:48.900Z,99682.72
2023-04-04T13:51:16.797Z,99685.91
2023-04-04T13:53:45.620Z,99673.09
2023-04-04T13:56:18.516Z,99677.88
2023-04-04T13:58:47.592Z,99686.66
2023-04-04T14:01:15.823Z,99673.47
2023-04-04T14:03:44.911Z,99672.16
2023-04-04T14:06:12.932Z,99670.88
2023-04-04T14:08:41.345Z,99672.34
2023-04-04T14:11:08.997Z,99664.16
2023-04-04T14:13:37.597Z,99664.72
2023-04-04T14:16:08.511Z,99664.13
2023-04-04T14:18:36.892Z,99663.88
2023-04-04T14:21:05.701Z,99667.50
2023-04-04T14:23:34.080Z,99659.28
2023-04-04T14:26:01.819Z,99663.69
2023-04-04T14:28:30.756Z,99662.66
2023-04-04T14:30:58.994Z,99656.56
2023-04-04T14:33:30.628Z,99655.63
2023-04-04T14:35:58.043Z,99666.00
2023-04-04T14:38:25.616Z,99661.56
2023-04-04T14:40:53.492Z,99658.09
2023-04-04T14:43:20.930Z,99659.00
2023-04-04T14:45:48.951Z,99655.94
2023-04-04T14:48:19.908Z,99658.59
2023-04-04T14:50:48.265Z,99663.75
2023-04-04T14:53:16.262Z,99656.19
2023-04-04T14:55:47.101Z,99652.59
2023-04-04T14:58:17.893Z,99659.31
2023-04-04T15:00:49.075Z,99655.94
2023-04-04T15:03:17.426Z,99663.03
2023-04-04T15:05:46.956Z,99655.16
2023-04-04T15:08:17.096Z,99657.75
2023-04-04T15:10:45.621Z,99657.69
2023-04-04T15:13:14.359Z,99654.38
2023-04-04T15:15:43.313Z,99659.63
2023-04-04T15:18:11.108Z,99662.56
2023-04-04T15:20:44.243Z,99661.94
2023-04-04T15:23:15.511Z,99663.75
2023-04-04T15:25:44.497Z,99664.56
2023-04-04T15:28:13.021Z,99669.75
2023-04-04T15:30:43.231Z,99666.47
2023-04-04T15:33:13.093Z,99658.06
2023-04-04T15:35:41.271Z,99655.19
2023-04-04T15:38:10.286Z,99660.63
2023-04-04T15:40:39.069Z,99661.53
2023-04-04T15:43:09.085Z,99661.72
2023-04-04T15:45:37.590Z,99654.44
2023-04-04T15:48:06.728Z,99654.41
2023-04-04T15:50:35.020Z,99652.84
2023-04-04T15:53:04.142Z,99655.03
2023-04-04T15:55:34.945Z,99650.22
2023-04-04T15:58:03.350Z,99652.94
2023-04-04T16:00:34.551Z,99649.69
2023-04-04T16:03:05.044Z,99641.59
2023-04-04T16:05:34.720Z,99645.25
2023-04-04T16:08:03.066Z,99640.72
2023-04-04T16:10:32.528Z,99625.78
2023-04-04T16:13:01.505Z,99641.28
2023-04-04T16:15:30.609Z,99635.88
2023-04-04T16:18:00.427Z,99628.84
2023-04-04T16:20:30.697Z,99624.22
2023-04-04T16:22:59.679Z,99626.50
2023-04-04T16:25:29.964Z,99622.97
2023-04-04T16:27:58.349Z,99624.28
2023-04-04T16:30:26.970Z,99619.47
2023-04-04T16:32:58.186Z,99624.84
2023-04-04T16:35:27.651Z,99624.66
2023-04-04T16:37:56.525Z,99619.69
2023-04-04T16:40:26.753Z,99611.28
2023-04-04T16:42:56.175Z,99617.03
2023-04-04T16:45:25.333Z,99612.78
2023-04-04T16:47:57.762Z,99612.09
2023-04-04T16:50:27.674Z,99614.00
2023-04-04T16:52:58.924Z,99619.47
2023-04-04T16:55:27.870Z,99619.91
2023-04-04T16:57:55.606Z,99617.19
2023-04-04T17:00:24.343Z,99621.78
2023-04-04T17:02:52.243Z,99623.69
2023-04-04T17:05:20.972Z,99619.06
2023-04-04T17:07:50.448Z,99616.69
2023-04-04T17:10:20.480Z,99611.75
2023-04-04T17:12:50.049Z,99616.00
2023-04-04T17:15:18.892Z,99618.81
2023-04-04T17:17:46.641Z,99623.91
2023-04-04T17:20:18.269Z,99629.03
2023-04-04T17:22:46.691Z,99629.97
2023-04-04T17:25:13.814Z,99630.72
2023-04-04T17:27:41.563Z,99629.88
2023-04-04T17:30:09.522Z,99630.78
2023-04-04T17:32:37.209Z,99623.84
2023-04-04T17:35:05.147Z,99625.56
2023-04-04T17:37:32.739Z,99622.84
2023-04-04T17:40:00.864Z,99622.16
2023-04-04T17:42:28.337Z,99618.72
2023-04-04T17:44:55.601Z,99611.03
2023-04-04T17:47:23.146Z,99608.72
2023-04-04T17:49:51.568Z,99596.34
2023-04-04T17:52:21.842Z,99588.00
2023-04-04T17:54:49.653Z,99580.78
2023-04-04T17:57:17.691Z,99582.63
2023-04-04T17:59:45.088Z,99574.00
2023-04-04T18:02:12.827Z,99567.19
2023-04-04T18:04:41.084Z,99564.41
2023-04-04T18:07:12.314Z,99564.59
2023-04-04T18:09:39.896Z,99569.69
2023-04-04T18:12:07.611Z,99574.94
2023-04-04T18:14:34.974Z,99586.44
2023-04-04T18:17:02.429Z,99588.38
2023-04-04T18:19:29.817Z,99594.47
2023-04-04T18:22:00.370Z,99594.28
2023-04-04T18:24:28.380Z,99591.78
2023-04-04T18:26:56.568Z,99604.78
2023-04-04T18:29:25.195Z,99608.13
2023-04-04T18:31:52.725Z,99615.03
2023-04-04T18:34:20.174Z,99612.38
2023-04-04T18:36:49.425Z,99627.09
2023-04-04T18:39:18.732Z,99627.88
2023-04-04T18:41:46.730Z,99641.88
2023-04-04T18:44:15.618Z,99643.41
2023-04-04T18:46:43.394Z,99645.16
2023-04-04T18:49:10.723Z,99656.38
2023-04-04T18:51:38.130Z,99653.78
2023-04-04T18:54:05.297Z,99650.31
2023-04-04T18:56:32.751Z,99641.53
2023-04-04T18:59:00.253Z,99628.47
2023-04-04T19:01:28.148Z,99627.69
2023-04-04T19:03:55.897Z,99622.50
2023-04-04T19:06:29.116Z,99632.97
2023-04-04T19:08:59.420Z,99624.34
2023-04-04T19:11:26.773Z,99629.53
2023-04-04T19:13:53.983Z,99645.28
2023-04-04T19:16:21.270Z,99646.25
2023-04-04T19:18:48.433Z,99648.00
2023-04-04T19:21:16.116Z,99645.34
2023-04-04T19:23:43.567Z,99650.00
2023-04-04T19:26:15.714Z,99651.78
2023-04-04T19:28:46.438Z,99651.81
2023-04-04T19:31:22.210Z,99650.09
2023-04-04T19:33:51.526Z,99657.09
2023-04-04T19:36:20.001Z,99658.09
2023-04-04T19:38:49.572Z,99653.78
2023-04-04T19:41:16.989Z,99652.09
2023-04-04T19:43:46.074Z,99661.81
2023-04-04T19:46:25.209Z,99659.41
2023-04-04T19:48:54.947Z,99654.34
2023-04-04T19:51:22.511Z,99669.31
2023-04-04T19:53:57.384Z,99660.78
2023-04-04T19:56:27.162Z,99667.00
2023-04-04T19:58:57.343Z,99663.63
2023-04-04T20:01:29.702Z,99667.28
2023-04-04T20:03:57.779Z,99662.16
2023-04-04T20:06:28.994Z,99661.41
2023-04-04T20:08:58.366Z,99655.38
2023-04-04T20:11:35.035Z,99657.19
2023-04-04T20:14:06.407Z,99652.00
2023-04-04T20:16:34.154Z,99647.66
2023-04-04T20:19:06.354Z,99645.13
2023-04-04T20:21:35.775Z,99647.78
2023-04-04T20:24:08.607Z,99638.22
2023-04-04T20:26:38.673Z,99640.00
2023-04-04T20:29:12.506Z,99646.16
2023-04-04T20:31:47.194Z,99642.63
2023-04-04T20:34:41.992Z,99637.41
2023-04-04T20:37:13.125Z,99629.59
2023-04-04T20:39:47.967Z,99623.47
2023-04-04T20:42:31.848Z,99626.19
2023-04-04T20:45:09.801Z,99622.66
2023-04-04T20:47:54.423Z,99624.44
2023-04-04T20:50:27.378Z,99620.97
2023-04-04T20:53:03.273Z,99629.66
2023-04-04T20:55:33.848Z,99627.88
2023-04-04T20:58:24.609Z,99628.72
2023-04-04T21:00:51.846Z,99625.22
2023-04-04T21:03:34.457Z,99623.44
2023-04-04T21:06:13.381Z,99622.66
2023-04-04T21:08:51.523Z,99620.00
2023-04-04T21:11:30.749Z,99615.59
2023-04-04T21:13:58.252Z,99610.38
2023-04-04T21:16:27.961Z,99609.50
2023-04-04T21:19:00.351Z,99605.97
2023-04-04T21:21:28.210Z,99600.81
2023-04-04T21:23:57.921Z,99605.06
2023-04-04T21:26:35.468Z,99600.94
2023-04-04T21:29:31.887Z,99598.22
2023-04-04T21:32:01.017Z,99591.22
2023-04-04T21:34:28.689Z,99593.78
2023-04-04T21:37:01.035Z,99587.69
2023-04-04T21:39:32.586Z,99578.13
2023-04-04T21:42:04.170Z,99572.81
2023-04-04T21:44:33.722Z,99571.97
2023-04-04T21:47:01.235Z,99568.47
2023-04-04T21:49:28.806Z,99569.31
2023-04-04T21:51:56.276Z,99571.84
2023-04-04T21:54:24.364Z,99564.03
2023-04-04T21:56:54.758Z,99568.34
2023-04-04T21:59:22.208Z,99570.03
2023-04-04T22:01:51.396Z,99574.44
2023-04-04T22:04:19.173Z,99572.59
2023-04-04T22:06:46.883Z,99571.63
2023-04-04T22:09:15.713Z,99561.19
2023-04-04T22:11:44.660Z,99568.13
2023-04-04T22:14:18.191Z,99568.22
2023-04-04T22:16:46.069Z,99564.63
2023-04-04T22:19:13.540Z,99561.16
2023-04-04T22:21:47.887Z,99560.25
2023-04-04T22:24:16.000Z,99557.56
2023-04-04T22:26:46.002Z,99560.19
2023-04-04T22:29:13.804Z,99567.16
2023-04-04T22:31:41.192Z,99571.53
2023-04-04T22:34:09.485Z,99569.78
2023-04-04T22:36:39.598Z,99566.31
2023-04-04T22:39:06.757Z,99567.25
2023-04-04T22:41:34.172Z,99562.84
2023-04-04T22:44:01.628Z,99562.84
2023-04-04T22:46:29.724Z,99558.44
2023-04-04T22:49:06.489Z,99562.09
2023-04-04T22:51:45.695Z,99555.22
2023-04-04T22:54:17.043Z,99554.44
2023-04-04T22:56:44.593Z,99544.03
2023-04-04T22:59:11.877Z,99544.91
2023-04-04T23:01:40.325Z,99541.34
2023-04-04T23:04:08.324Z,99533.50
2023-04-04T23:06:36.233Z,99533.50
2023-04-04T23:09:04.527Z,99523.78
2023-04-04T23:11:31.673Z,99527.44
2023-04-04T23:13:59.039Z,99520.38
2023-04-04T23:16:29.222Z,99524.69
2023-04-04T23:18:56.688Z,99527.28
2023-04-04T23:21:25.211Z,99529.81
2023-04-04T23:23:52.889Z,99521.19
2023-04-04T23:26:20.377Z,99515.13
2023-04-04T23:28:47.626Z,99517.84
2023-04-04T23:31:16.457Z,99520.31
2023-04-04T23:33:44.057Z,99513.31
2023-04-04T23:36:12.019Z,99518.53
2023-04-04T23:38:39.498Z,99514.28
2023-04-04T23:41:07.010Z,99507.25
2023-04-04T23:43:36.223Z,99512.47
2023-04-04T23:46:03.897Z,99509.91
2023-04-04T23:48:31.868Z,99507.19
2023-04-04T23:51:02.105Z,99495.88
2023-04-04T23:53:29.990Z,99503.91
2023-04-04T23:55:58.608Z,99496.88
2023-04-04T23:58:26.036Z,99501.16
